Airfield :
LOGIN :

Register | Disclaimer

   EN    FR    IT 

 










Legend :    VFR   Marginal VFR   IFR   Intensive IFR   Very Intensive IFR
Visi :
Ceiling :
>= 8 km
>= 3000ft
5 to 8 km
1000 to 3000 ft
1500m to 5 km
500 to 1000 ft
800 to 1500m
200 to 500 ft
< 800m
< 200 ft
Symbols :   Thunderstorms  Fog  Heavy snow  Heavy precipitations  Wind > 20 kt
SIGMETs :     Misc.  Thunderstorms  Icing  Turbulence  Mountain Waves  Volcanic Ashes







- Airport Elevation : 55 ft
- IATA code : PYR


LGAD - Andravida

CURRENT METAR :
  • 201950Z 31004KT CAVOK 24/21 Q1016

EXPIRED METARs :
  • 201920Z 32005KT CAVOK 24/20 Q1016
  • 201850Z 33005KT CAVOK 25/19 Q1016
  • 201820Z 34007KT CAVOK 26/18 Q1015
  • 201750Z 33009KT CAVOK 27/17 Q1015
  • 201720Z 33009KT CAVOK 27/17 Q1015

TAF TAF LGAD
Valid from the 20 at 18:00 until the 21 at 03:00 UTC


201700Z 2018/2103 30015KT 9999 FEW020
BECMG 2019/2021 04010KT
No reported NOTAMs for that airfield.



MET'MAP, your aeronautical weather chart ! - Copyright ORBIFLY December 2007 - Disclaimer

ORBIFLY MET'MAP TEAM :

Programming & Development : Alexandra Zaïnal
Concept & Development : Baudouin d'Aumeries
Co-Development & Prog : Marc-Olivier Méhu
Technical & hardware support : Manuel Goepfert

Contact : metmap@orbifly.com




SOURCES & CREDITS :

   NOAA